Time;durP1;ratioP1;P1;durP2;ratioP2;P2;SDS_P1;SDS_P2;PMS_P1;PMS_P2;Temp;Humidity;BMP_temperature;BMP_pressure;BME280_temperature;BME280_humidity;BME280_pressure;Samples;Min_cycle;Max_cycle;Signal;HPM_P1;HPM_P2
2022/12/05 11:31:11;;;;;;;11.43;6.72;;;6.40;99.90;;;;;;5103909;22;20570;-77
2022/12/05 11:33:37;;;;;;;11.25;7.45;;;6.30;99.90;;;;;;5051375;28;20111;-79
2022/12/05 11:36:19;;;;;;;13.32;7.22;;;6.30;99.90;;;;;;5033253;28;20409;-76
2022/12/05 11:38:45;;;;;;;13.48;7.00;;;6.30;99.90;;;;;;5051719;28;20397;-76
2022/12/05 11:41:35;;;;;;;14.00;7.85;;;6.30;99.90;;;;;;5050878;28;20052;-78
2022/12/05 11:44:13;;;;;;;13.57;7.50;;;6.30;99.90;;;;;;5051241;28;20061;-78
2022/12/05 11:46:51;;;;;;;13.50;6.95;;;6.70;99.90;;;;;;5047294;28;20049;-78
2022/12/05 11:49:43;;;;;;;15.95;7.28;;;6.30;99.90;;;;;;5050126;28;20045;-80
2022/12/05 11:52:46;;;;;;;12.95;7.13;;;7.20;99.90;;;;;;5048869;28;20060;-79
2022/12/05 11:55:27;;;;;;;13.35;6.95;;;6.30;99.90;;;;;;5053637;28;20041;-80
2022/12/05 11:57:59;;;;;;;10.60;6.93;;;6.30;99.90;;;;;;5064789;28;20412;-80
2022/12/05 12:01:12;;;;;;;13.30;6.38;;;6.30;99.90;;;;;;5021660;28;20068;-82
2022/12/05 12:03:37;;;;;;;11.18;6.35;;;6.30;99.90;;;;;;5021982;28;20071;-84
2022/12/05 12:06:27;;;;;;;12.85;6.75;;;6.30;99.90;;;;;;5070509;28;20048;-81
2022/12/05 12:09:20;;;;;;;11.65;6.47;;;5.30;99.90;;;;;;5037750;28;20041;-82
2022/12/05 12:11:57;;;;;;;13.70;6.75;;;6.30;99.90;;;;;;5037783;28;20061;-82
2022/12/05 12:14:35;;;;;;;9.48;5.55;;;6.30;99.90;;;;;;5055972;28;20072;-82
2022/12/05 12:17:20;;;;;;;12.43;5.97;;;6.40;99.90;;;;;;5021115;28;20468;-82
2022/12/05 12:20:17;;;;;;;11.63;5.57;;;6.40;99.90;;;;;;5055539;28;20080;-82
2022/12/05 12:23:13;;;;;;;11.57;6.28;;;6.30;99.90;;;;;;5037253;28;20053;-82
2022/12/05 12:25:46;;;;;;;11.43;5.93;;;6.30;99.90;;;;;;5037315;28;20059;-82
2022/12/05 12:28:56;;;;;;;12.45;6.32;;;6.30;99.90;;;;;;5056060;28;20049;-84
2022/12/05 12:31:30;;;;;;;10.88;5.68;;;6.40;99.90;;;;;;5037148;28;20057;-83
2022/12/05 12:34:33;;;;;;;11.45;5.97;;;7.50;99.90;;;;;;5037811;28;20153;-84
2022/12/05 12:37:13;;;;;;;10.38;5.82;;;6.30;99.90;;;;;;5020877;28;20057;-82
2022/12/05 12:39:54;;;;;;;9.02;5.60;;;6.30;99.90;;;;;;5055451;28;20064;-82
2022/12/05 12:42:26;;;;;;;12.10;6.10;;;6.40;99.90;;;;;;5041338;28;20053;-82
2022/12/05 12:45:25;;;;;;;11.82;6.13;;;7.30;99.90;;;;;;5033467;28;20088;-82
2022/12/05 12:48:11;;;;;;;13.10;5.57;;;6.30;99.90;;;;;;5035455;28;20100;-82
2022/12/05 12:50:42;;;;;;;13.98;6.20;;;6.40;99.90;;;;;;5000424;28;20359;-83
2022/12/05 12:53:35;;;;;;;9.00;5.18;;;6.40;99.90;;;;;;5017789;28;20108;-82
2022/12/05 12:56:03;;;;;;;8.80;5.03;;;6.40;99.90;;;;;;5035343;28;20057;-82
2022/12/05 12:58:41;;;;;;;8.68;4.75;;;6.40;99.90;;;;;;5035565;28;20051;-82
2022/12/05 13:01:18;;;;;;;10.32;5.22;;;6.40;99.90;;;;;;5001248;28;20509;-82
2022/12/05 13:04:11;;;;;;;9.18;5.00;;;6.40;99.90;;;;;;5017142;28;20083;-82
2022/12/05 13:06:42;;;;;;;9.32;5.15;;;6.40;99.90;;;;;;5016286;28;20093;-82
2022/12/05 13:09:28;;;;;;;10.80;5.18;;;6.40;99.90;;;;;;5015037;28;20057;-82
2022/12/05 13:11:56;;;;;;;8.95;5.10;;;6.40;99.90;;;;;;5017300;28;20055;-82
2022/12/05 13:14:26;;;;;;;9.73;5.00;;;6.40;99.90;;;;;;5034401;28;20049;-82
2022/12/05 13:16:53;;;;;;;9.63;5.00;;;6.40;99.90;;;;;;5042584;28;20053;-80
2022/12/05 13:19:36;;;;;;;10.13;5.20;;;6.40;99.90;;;;;;5034842;28;20071;-84
2022/12/05 13:22:05;;;;;;;9.20;4.95;;;6.40;99.90;;;;;;5036409;28;20504;-82
2022/12/05 13:24:31;;;;;;;9.30;4.97;;;6.30;99.90;;;;;;5036608;28;20052;-82
2022/12/05 13:27:00;;;;;;;10.25;5.20;;;6.40;99.90;;;;;;5034715;28;20407;-84
2022/12/05 13:29:33;;;;;;;7.43;4.40;;;6.40;99.90;;;;;;5019942;28;20053;-82
2022/12/05 13:32:02;;;;;;;13.23;5.07;;;6.50;99.90;;;;;;5016095;28;20057;-83
2022/12/05 13:34:28;;;;;;;12.15;5.00;;;6.40;99.90;;;;;;4999956;28;20049;-83
2022/12/05 13:42:36;;;;;;;10.40;5.00;;;6.40;99.90;;;;;;5034457;28;20054;-83
2022/12/05 13:45:10;;;;;;;12.57;5.15;;;6.40;99.90;;;;;;4998867;28;20559;-83
2022/12/05 13:48:00;;;;;;;10.75;4.93;;;6.30;99.90;;;;;;5014361;28;20053;-83
2022/12/05 13:50:32;;;;;;;10.15;5.10;;;6.30;99.90;;;;;;5016021;28;20127;-83
2022/12/05 13:53:18;;;;;;;9.23;5.00;;;6.40;99.90;;;;;;5016590;28;20561;-83
2022/12/05 13:55:54;;;;;;;10.65;4.60;;;6.30;99.90;;;;;;4999930;28;20071;-83
2022/12/05 13:58:23;;;;;;;9.52;4.88;;;6.30;99.90;;;;;;5016681;28;20133;-83
2022/12/05 14:00:50;;;;;;;9.20;4.45;;;7.10;99.90;;;;;;5034174;28;20041;-83
2022/12/05 14:03:36;;;;;;;12.07;4.63;;;7.10;99.90;;;;;;4999869;28;20053;-83
2022/12/05 14:06:01;;;;;;;10.10;4.60;;;6.40;99.90;;;;;;5046269;28;20132;-83
2022/12/05 14:08:30;;;;;;;9.95;4.80;;;6.30;99.90;;;;;;5015611;28;20053;-82
2022/12/05 14:10:56;;;;;;;9.13;4.60;;;6.30;99.90;;;;;;5015880;28;20064;-83
2022/12/05 14:13:22;;;;;;;10.48;4.82;;;6.20;99.90;;;;;;5037039;28;20449;-82
2022/12/05 14:15:53;;;;;;;8.90;4.85;;;7.20;99.90;;;;;;5054047;28;20044;-77
2022/12/05 14:18:28;;;;;;;10.15;5.00;;;6.20;99.90;;;;;;5064820;28;20040;-79
2022/12/05 14:21:08;;;;;;;9.55;5.32;;;5.00;99.90;;;;;;5065662;28;20056;-79
2022/12/05 14:23:46;;;;;;;12.98;4.97;;;6.10;99.90;;;;;;5045375;28;20124;-80
2022/12/05 14:26:33;;;;;;;10.02;5.38;;;6.20;99.90;;;;;;5065619;28;20045;-80
2022/12/05 14:29:24;;;;;;;9.35;4.70;;;6.20;99.90;;;;;;5064092;28;20048;-80
2022/12/05 14:32:04;;;;;;;11.85;5.45;;;6.30;99.90;;;;;;5041140;28;20468;-80
2022/12/05 14:34:48;;;;;;;9.98;5.15;;;6.20;99.90;;;;;;5065445;28;20406;-79
2022/12/05 14:37:14;;;;;;;12.32;5.35;;;6.20;99.90;;;;;;5056611;28;20049;-80
2022/12/05 14:39:46;;;;;;;9.85;4.88;;;6.20;99.90;;;;;;5044366;28;20103;-79
2022/12/05 14:42:34;;;;;;;12.82;5.32;;;6.60;99.90;;;;;;5057372;28;20144;-78
2022/12/05 14:45:21;;;;;;;10.25;4.90;;;7.30;99.90;;;;;;5034990;28;20461;-79
2022/12/05 14:48:13;;;;;;;12.30;5.35;;;6.20;99.90;;;;;;5052476;28;20076;-79
2022/12/05 14:50:50;;;;;;;10.82;5.18;;;6.30;99.90;;;;;;5027553;28;20521;-78
2022/12/05 14:53:31;;;;;;;11.70;4.95;;;6.20;99.90;;;;;;5054336;28;20130;-80
2022/12/05 14:55:59;;;;;;;8.35;4.70;;;6.20;99.90;;;;;;5019636;28;20049;-80
2022/12/05 14:58:55;;;;;;;13.15;5.10;;;6.20;99.90;;;;;;5069276;28;20064;-80
2022/12/05 15:01:42;;;;;;;11.80;4.70;;;6.30;99.90;;;;;;5072079;28;20461;-81
2022/12/05 15:04:11;;;;;;;10.27;4.90;;;6.20;99.90;;;;;;5051252;28;20048;-79
2022/12/05 15:06:46;;;;;;;9.30;4.45;;;6.30;99.90;;;;;;5047569;28;20061;-79
2022/12/05 15:09:35;;;;;;;10.63;5.23;;;6.20;99.90;;;;;;5045710;28;20056;-80
2022/12/05 15:12:05;;;;;;;14.23;4.95;;;5.90;99.90;;;;;;5037101;28;20041;-80
2022/12/05 15:14:41;;;;;;;10.77;4.65;;;6.20;99.90;;;;;;5043271;28;20057;-80
2022/12/05 15:17:14;;;;;;;9.48;5.25;;;6.20;99.90;;;;;;5056087;28;20045;-80
2022/12/05 15:20:05;;;;;;;9.57;5.38;;;6.20;99.90;;;;;;5062046;28;20465;-80
2022/12/05 15:22:35;;;;;;;11.98;5.25;;;6.20;99.90;;;;;;5046304;28;20063;-80
2022/12/05 15:25:20;;;;;;;9.50;5.15;;;6.90;99.90;;;;;;5051879;28;20132;-80
2022/12/05 15:27:58;;;;;;;8.90;4.72;;;5.40;99.90;;;;;;5064545;28;20040;-79
2022/12/05 15:30:24;;;;;;;11.23;4.70;;;6.50;99.90;;;;;;5045094;28;20052;-78
2022/12/05 15:32:51;;;;;;;10.65;5.03;;;7.10;99.90;;;;;;5059322;28;20112;-79
2022/12/05 15:35:17;;;;;;;9.23;4.78;;;6.20;99.90;;;;;;5067858;28;20048;-79
2022/12/05 15:37:54;;;;;;;10.23;4.93;;;6.20;99.90;;;;;;5043489;28;20053;-80
2022/12/05 15:40:22;;;;;;;12.10;5.60;;;6.10;99.90;;;;;;5051070;28;20469;-80
2022/12/05 15:42:50;;;;;;;9.25;5.00;;;6.10;99.90;;;;;;5034348;28;20507;-80
2022/12/05 15:45:26;;;;;;;9.70;5.50;;;6.50;99.90;;;;;;5033731;28;20079;-80
2022/12/05 15:47:56;;;;;;;;;;;6.10;99.90;;;;;;5034992;28;20378;-80
2022/12/05 15:50:40;;;;;;;9.88;5.43;;;6.10;99.90;;;;;;5033796;28;19921;-80
2022/12/05 15:53:29;;;;;;;9.38;5.28;;;7.00;99.90;;;;;;5033874;28;20141;-80
2022/12/05 15:56:08;;;;;;;8.25;4.65;;;6.10;99.90;;;;;;5033563;28;20505;-80
2022/12/05 15:58:36;;;;;;;10.25;5.65;;;6.20;99.90;;;;;;5016080;28;20048;-80
2022/12/05 16:01:18;;;;;;;9.05;5.25;;;6.60;99.90;;;;;;5051757;28;20148;-80
2022/12/05 16:04:08;;;;;;;10.13;5.00;;;6.20;99.90;;;;;;5052056;28;20049;-80
2022/12/05 16:06:46;;;;;;;10.13;5.40;;;6.20;99.90;;;;;;5038463;28;20053;-80
2022/12/05 16:09:18;;;;;;;11.57;5.57;;;6.20;99.90;;;;;;5031606;28;20089;-80
2022/12/05 16:12:24;;;;;;;12.23;5.47;;;6.60;99.90;;;;;;5031742;28;20049;-80
2022/12/05 16:14:54;;;;;;;11.45;5.45;;;6.20;99.90;;;;;;5023395;28;20111;-80
2022/12/05 16:17:20;;;;;;;10.95;5.45;;;6.20;99.90;;;;;;5014164;28;20103;-80
2022/12/05 16:19:46;;;;;;;9.93;5.72;;;7.10;99.90;;;;;;5032142;28;20046;-80
2022/12/05 16:22:12;;;;;;;12.88;6.40;;;6.10;99.90;;;;;;5014393;28;20104;-80
2022/12/05 16:24:44;;;;;;;12.30;5.50;;;6.50;99.90;;;;;;5031807;28;20053;-80
2022/12/05 16:27:15;;;;;;;12.80;5.63;;;6.40;99.90;;;;;;5014100;28;20053;-80
2022/12/05 16:29:42;;;;;;;11.27;5.38;;;7.10;99.90;;;;;;5013886;28;20053;-80
2022/12/05 16:32:24;;;;;;;11.82;6.53;;;6.20;99.90;;;;;;5014102;28;20061;-80
2022/12/05 16:34:50;;;;;;;9.07;5.00;;;6.10;99.90;;;;;;5014142;28;20076;-80
2022/12/05 16:37:25;;;;;;;9.57;5.60;;;7.40;99.90;;;;;;5013983;28;20053;-80
2022/12/05 16:39:51;;;;;;;12.13;5.40;;;6.90;99.90;;;;;;4998144;28;20429;-80
2022/12/05 16:42:28;;;;;;;13.70;5.75;;;6.60;99.90;;;;;;5030619;28;20429;-80
2022/12/05 16:45:01;;;;;;;11.20;5.68;;;7.10;99.90;;;;;;5031771;28;20128;-80
2022/12/05 16:47:39;;;;;;;13.30;6.15;;;6.10;99.90;;;;;;5014239;28;20053;-80
2022/12/05 16:50:30;;;;;;;12.18;5.88;;;7.10;99.90;;;;;;5031300;28;20049;-80
2022/12/05 16:53:13;;;;;;;12.82;5.72;;;6.10;99.90;;;;;;5035591;28;20140;-79
2022/12/05 16:55:42;;;;;;;10.10;5.65;;;6.10;99.90;;;;;;5017218;28;20057;-80
2022/12/05 16:58:12;;;;;;;12.07;6.43;;;6.10;99.90;;;;;;5034939;28;20049;-80
2022/12/05 17:00:38;;;;;;;9.95;6.05;;;6.10;99.90;;;;;;5017394;28;20427;-80
2022/12/05 17:03:04;;;;;;;10.45;5.75;;;6.10;99.90;;;;;;5034965;28;20037;-80
2022/12/05 17:05:30;;;;;;;14.32;5.72;;;6.10;99.90;;;;;;5035028;28;20053;-80
2022/12/05 17:07:55;;;;;;;12.77;5.90;;;6.10;99.90;;;;;;5017439;28;20056;-80
2022/12/05 17:10:21;;;;;;;11.55;5.53;;;7.20;99.90;;;;;;5017311;28;20057;-80
2022/12/05 17:12:47;;;;;;;10.10;5.15;;;6.20;99.90;;;;;;5033939;28;20057;-80
2022/12/05 17:15:17;;;;;;;8.38;5.32;;;5.90;99.90;;;;;;5034871;28;20053;-81
2022/12/05 17:17:43;;;;;;;7.38;4.55;;;6.10;99.90;;;;;;5017021;28;20045;-81
2022/12/05 17:20:10;;;;;;;9.52;4.65;;;7.10;99.90;;;;;;5000633;28;20061;-80
2022/12/05 17:22:36;;;;;;;10.38;5.30;;;6.70;99.90;;;;;;5017342;28;20050;-80
2022/12/05 17:25:02;;;;;;;10.80;4.78;;;6.10;99.90;;;;;;5034944;28;20191;-80
2022/12/05 17:27:27;;;;;;;8.13;4.68;;;6.10;99.90;;;;;;5041424;28;20041;-80
2022/12/05 17:29:53;;;;;;;8.20;4.97;;;6.10;99.90;;;;;;5039671;28;20452;-80
2022/12/05 17:32:19;;;;;;;9.82;5.68;;;7.50;99.90;;;;;;5056739;28;20394;-80
2022/12/05 17:34:44;;;;;;;9.23;5.20;;;6.10;99.90;;;;;;5056834;28;20102;-81
2022/12/05 17:37:10;;;;;;;8.85;4.75;;;6.10;99.90;;;;;;5040395;28;20052;-80
2022/12/05 17:39:36;;;;;;;10.00;5.35;;;6.50;99.90;;;;;;5074456;28;20131;-80
2022/12/05 17:42:01;;;;;;;10.45;4.97;;;7.50;99.90;;;;;;5074731;28;20131;-79
2022/12/05 17:44:27;;;;;;;8.98;5.38;;;6.40;99.90;;;;;;5039831;28;20045;-80
2022/12/05 17:46:53;;;;;;;8.95;5.13;;;6.80;99.90;;;;;;5054450;28;20511;-80
2022/12/05 17:49:18;;;;;;;8.38;4.97;;;6.10;99.90;;;;;;5056226;28;20090;-80
2022/12/05 17:51:45;;;;;;;10.30;5.07;;;7.20;99.90;;;;;;5074618;28;20411;-80
2022/12/05 17:54:10;;;;;;;7.53;4.90;;;6.20;99.90;;;;;;5074448;28;20108;-80
2022/12/05 17:56:36;;;;;;;9.80;5.30;;;6.20;99.90;;;;;;5056157;28;20506;-80
2022/12/05 17:59:01;;;;;;;9.15;4.95;;;6.50;99.90;;;;;;5039564;28;20523;-80
2022/12/05 18:01:27;;;;;;;9.57;5.45;;;6.30;99.90;;;;;;5056336;28;20408;-80
2022/12/05 18:03:53;;;;;;;12.05;5.40;;;6.20;99.90;;;;;;5073229;28;20044;-80
2022/12/05 18:06:18;;;;;;;9.82;5.60;;;6.10;99.90;;;;;;5073443;28;20059;-80
2022/12/05 18:08:48;;;;;;;9.85;5.35;;;6.10;99.90;;;;;;5056023;28;20109;-80
2022/12/05 18:11:14;;;;;;;10.02;5.88;;;6.20;99.90;;;;;;5056029;28;20501;-80
2022/12/05 18:13:40;;;;;;;11.18;5.03;;;6.10;99.90;;;;;;5074196;28;20108;-80
2022/12/05 18:16:07;;;;;;;8.60;5.07;;;6.20;99.90;;;;;;5073477;28;20052;-80
2022/12/05 18:18:32;;;;;;;9.57;4.90;;;6.80;99.90;;;;;;5055913;28;20378;-80
2022/12/05 18:21:09;;;;;;;10.55;4.88;;;6.20;99.90;;;;;;5053076;28;20052;-80
2022/12/05 18:23:36;;;;;;;9.82;4.72;;;6.30;99.90;;;;;;5055928;28;20064;-80
2022/12/05 18:26:03;;;;;;;7.40;4.68;;;6.80;99.90;;;;;;5053996;28;20052;-84
2022/12/05 18:28:28;;;;;;;8.20;4.43;;;7.20;99.90;;;;;;5038751;28;20054;-84
2022/12/05 18:31:08;;;;;;;9.02;4.78;;;6.20;99.90;;;;;;5038703;28;20051;-84
2022/12/05 18:33:34;;;;;;;9.48;4.95;;;6.40;99.90;;;;;;5051397;28;20488;-83
2022/12/05 18:36:10;;;;;;;11.00;4.90;;;6.30;99.90;;;;;;5038774;28;20064;-83
2022/12/05 18:38:36;;;;;;;8.60;4.85;;;6.30;99.90;;;;;;5053651;28;20409;-84
2022/12/05 18:41:03;;;;;;;7.57;4.10;;;6.20;99.90;;;;;;5030831;28;20053;-83
2022/12/05 18:43:30;;;;;;;10.82;4.68;;;7.40;99.90;;;;;;5014864;28;20045;-82
2022/12/05 18:45:57;;;;;;;7.53;4.50;;;6.20;99.90;;;;;;5048135;28;20086;-84
2022/12/05 18:48:23;;;;;;;8.18;5.00;;;7.20;99.90;;;;;;5028672;28;20493;-85
2022/12/05 18:50:50;;;;;;;11.23;4.88;;;6.20;99.90;;;;;;5032375;28;20508;-83
2022/12/05 18:53:16;;;;;;;10.20;5.00;;;6.20;99.90;;;;;;5036876;28;20051;-84
2022/12/05 18:55:42;;;;;;;9.63;5.20;;;7.50;99.90;;;;;;5038038;28;20048;-83
2022/12/05 18:58:07;;;;;;;13.10;6.22;;;6.30;99.90;;;;;;5054957;28;20059;-84
2022/12/05 19:00:33;;;;;;;13.35;5.80;;;7.50;99.90;;;;;;5046106;28;20106;-83
2022/12/05 19:02:59;;;;;;;12.98;5.68;;;7.80;99.90;;;;;;5034856;28;20154;-84
2022/12/05 19:05:25;;;;;;;10.43;5.00;;;7.40;99.90;;;;;;5013489;28;20095;-84
2022/12/05 19:07:54;;;;;;;13.10;5.45;;;7.60;99.90;;;;;;4998921;28;20056;-83
2022/12/05 19:10:19;;;;;;;11.27;5.00;;;6.10;99.90;;;;;;5015057;28;20055;-84
2022/12/05 19:12:45;;;;;;;9.75;4.82;;;7.40;99.90;;;;;;5063180;28;20409;-82
2022/12/05 19:15:11;;;;;;;12.15;4.55;;;6.00;99.90;;;;;;5072640;28;20193;-83
2022/12/05 19:17:36;;;;;;;11.38;4.63;;;6.50;99.90;;;;;;5072471;28;20040;-80
2022/12/05 19:20:03;;;;;;;9.25;4.40;;;7.30;99.90;;;;;;5057343;28;20515;-80
2022/12/05 19:22:30;;;;;;;9.02;4.20;;;6.30;99.90;;;;;;5048237;28;20531;-80
2022/12/05 19:24:56;;;;;;;10.13;4.35;;;;;;;;;;5040457;28;20409;-80
2022/12/05 19:27:22;;;;;;;11.68;4.20;;;6.20;99.90;;;;;;5065797;28;20048;-80
2022/12/05 19:29:48;;;;;;;8.45;4.25;;;7.50;99.90;;;;;;5045396;28;20044;-81
2022/12/05 19:32:13;;;;;;;11.05;4.47;;;5.10;99.90;;;;;;5045729;28;20066;-80
2022/12/05 19:34:40;;;;;;;8.57;4.28;;;7.60;99.90;;;;;;5045811;28;20052;-80
2022/12/05 19:37:05;;;;;;;12.25;4.18;;;7.50;99.90;;;;;;5043397;28;20047;-80
2022/12/05 19:39:31;;;;;;;9.45;4.00;;;7.60;99.90;;;;;;5065743;28;20048;-79
2022/12/05 19:41:58;;;;;;;8.90;4.10;;;6.50;99.90;;;;;;5064792;28;20484;-79
2022/12/05 19:44:25;;;;;;;10.50;4.53;;;6.20;99.90;;;;;;5040501;28;20446;-79
2022/12/05 19:46:53;;;;;;;9.85;4.43;;;6.40;99.90;;;;;;5065081;28;20139;-79
2022/12/05 19:49:21;;;;;;;8.55;4.90;;;;;;;;;;5066331;28;20512;-79
2022/12/05 19:51:47;;;;;;;9.70;4.43;;;6.20;99.90;;;;;;5043841;28;20052;-80
2022/12/05 19:54:16;;;;;;;13.07;4.63;;;6.20;99.90;;;;;;5045416;28;20077;-82
2022/12/05 19:56:42;;;;;;;8.75;4.13;;;7.30;99.90;;;;;;5065421;28;20045;-80
2022/12/05 19:59:13;;;;;;;14.07;4.80;;;6.20;99.90;;;;;;5046851;28;20057;-81
2022/12/05 20:01:40;;;;;;;9.00;4.28;;;6.20;99.90;;;;;;5044023;28;20056;-80
2022/12/05 20:04:12;;;;;;;8.95;4.57;;;7.40;99.90;;;;;;5047299;28;20052;-80
2022/12/05 20:06:41;;;;;;;8.95;5.05;;;6.20;99.90;;;;;;5042180;28;20057;-80
2022/12/05 20:09:08;;;;;;;9.95;4.38;;;7.10;99.90;;;;;;5046651;28;20083;-80
2022/12/05 20:11:34;;;;;;;11.90;4.22;;;6.20;99.90;;;;;;5043859;28;20052;-80
2022/12/05 20:14:00;;;;;;;15.05;4.82;;;6.20;99.90;;;;;;5067444;28;20066;-81
2022/12/05 20:16:27;;;;;;;10.63;4.25;;;6.20;99.90;;;;;;5046176;28;20118;-80
2022/12/05 20:18:56;;;;;;;11.07;4.00;;;6.20;99.90;;;;;;5043103;28;20091;-80
2022/12/05 20:21:23;;;;;;;13.10;4.20;;;6.20;99.90;;;;;;5051232;28;20128;-80
2022/12/05 20:23:50;;;;;;;11.65;4.40;;;6.20;99.90;;;;;;5046070;28;20143;-79
2022/12/05 20:26:20;;;;;;;10.48;3.75;;;6.30;99.90;;;;;;5072552;28;20045;-80
2022/12/05 20:28:46;;;;;;;11.50;3.92;;;6.30;99.90;;;;;;5057739;28;20064;-79
2022/12/05 20:31:14;;;;;;;10.10;3.85;;;6.20;99.90;;;;;;5056753;28;20093;-80
2022/12/05 20:33:41;;;;;;;12.27;4.13;;;6.20;99.90;;;;;;5017932;28;20057;-79
2022/12/05 20:36:12;;;;;;;13.68;4.40;;;7.20;99.90;;;;;;5034914;28;20054;-81
2022/12/05 20:38:39;;;;;;;14.18;4.15;;;6.20;99.90;;;;;;5034192;28;20102;-80
2022/12/05 20:41:07;;;;;;;17.58;4.38;;;6.30;99.90;;;;;;5075200;28;20059;-81
2022/12/05 20:43:33;;;;;;;10.52;4.20;;;6.30;99.90;;;;;;5057739;28;20365;-81
2022/12/05 20:46:09;;;;;;;12.52;4.10;;;6.20;99.90;;;;;;5074982;28;20063;-82
2022/12/05 20:48:35;;;;;;;11.57;3.90;;;6.90;99.90;;;;;;5040730;28;20131;-81
2022/12/05 20:51:05;;;;;;;9.32;3.78;;;6.20;99.90;;;;;;5046683;28;20095;-82
2022/12/05 20:53:34;;;;;;;11.88;3.50;;;6.30;99.90;;;;;;5055387;28;20408;-82
2022/12/05 20:56:08;;;;;;;9.55;4.03;;;6.30;99.90;;;;;;5034663;28;20057;-81
2022/12/05 20:58:34;;;;;;;11.20;3.78;;;6.30;99.90;;;;;;5054608;28;20211;-81
2022/12/05 21:01:02;;;;;;;13.00;3.75;;;6.30;99.90;;;;;;5055917;28;20049;-81
2022/12/05 21:03:27;;;;;;;12.45;3.90;;;6.30;99.90;;;;;;5037647;28;20482;-81
2022/12/05 21:05:53;;;;;;;10.85;4.03;;;7.00;99.90;;;;;;5057902;28;20137;-82
2022/12/05 21:08:19;;;;;;;12.40;4.40;;;6.30;99.90;;;;;;5057115;28;20110;-81
2022/12/05 21:10:48;;;;;;;6.18;3.92;;;6.30;99.90;;;;;;5074738;28;20063;-81
2022/12/05 21:13:13;;;;;;;10.90;4.05;;;6.30;99.90;;;;;;5057167;28;20117;-82
2022/12/05 21:15:39;;;;;;;11.88;4.55;;;6.30;99.90;;;;;;5055135;28;20564;-82
2022/12/05 21:18:05;;;;;;;9.43;4.25;;;6.30;99.90;;;;;;5020940;28;20049;-81
2022/12/05 21:20:31;;;;;;;7.85;3.72;;;6.30;99.90;;;;;;5037026;28;20379;-82
2022/12/05 21:23:03;;;;;;;11.98;4.03;;;6.30;99.90;;;;;;5035829;28;20053;-82
2022/12/05 21:25:29;;;;;;;13.18;4.75;;;6.30;99.90;;;;;;5054318;28;20127;-82
2022/12/05 21:27:54;;;;;;;10.25;4.97;;;7.10;99.90;;;;;;5036992;28;20154;-81
2022/12/05 21:30:20;;;;;;;9.85;4.72;;;6.30;99.90;;;;;;5020071;28;20064;-81
2022/12/05 21:32:46;;;;;;;10.18;4.45;;;6.30;99.90;;;;;;5054823;28;20049;-82
2022/12/05 21:35:12;;;;;;;8.88;4.15;;;6.30;99.90;;;;;;5019996;28;20045;-82
2022/12/05 21:37:38;;;;;;;10.55;3.90;;;6.30;99.90;;;;;;5038706;28;20091;-82
2022/12/05 21:40:05;;;;;;;16.10;4.22;;;6.30;99.90;;;;;;5047515;28;20160;-82
2022/12/05 21:42:31;;;;;;;7.38;4.22;;;6.30;99.90;;;;;;5016912;28;20164;-82
2022/12/05 21:44:57;;;;;;;10.27;4.00;;;6.30;99.90;;;;;;5034640;28;20064;-81
2022/12/05 21:47:23;;;;;;;13.23;4.35;;;6.30;99.90;;;;;;5033401;28;20041;-81
2022/12/05 21:49:49;;;;;;;10.65;3.75;;;7.00;99.90;;;;;;5000209;28;20486;-81
2022/12/05 21:52:15;;;;;;;8.80;3.97;;;6.30;99.90;;;;;;5016559;28;20053;-79
2022/12/05 21:54:40;;;;;;;12.30;3.83;;;6.30;99.90;;;;;;5021071;28;20450;-79
2022/12/05 21:57:06;;;;;;;13.40;4.32;;;6.40;99.90;;;;;;5056576;28;20131;-80
2022/12/05 21:59:31;;;;;;;12.70;4.10;;;6.70;99.90;;;;;;5022784;28;20057;-80
2022/12/05 22:01:58;;;;;;;14.55;3.95;;;7.40;99.90;;;;;;5027572;28;20405;-88
2022/12/05 22:04:23;;;;;;;19.05;4.45;;;7.00;99.90;;;;;;5027859;28;20060;-85
2022/12/05 22:06:49;;;;;;;10.50;3.60;;;7.40;99.90;;;;;;5040389;28;20056;-88
2022/12/05 22:09:15;;;;;;;16.25;4.05;;;7.50;99.90;;;;;;5040928;28;20080;-88
2022/12/05 22:11:40;;;;;;;9.90;3.70;;;6.30;99.90;;;;;;5029891;28;20126;-88
2022/12/05 22:14:06;;;;;;;11.40;4.15;;;7.50;99.90;;;;;;5021161;28;20052;-87
2022/12/05 22:16:32;;;;;;;9.75;3.50;;;6.30;99.90;;;;;;5021667;28;20527;-88
2022/12/05 22:18:57;;;;;;;11.13;3.67;;;6.70;99.90;;;;;;5021274;28;20143;-88
2022/12/05 22:21:23;;;;;;;10.68;3.30;;;6.30;99.90;;;;;;5020399;28;20398;-88
2022/12/05 22:23:49;;;;;;;8.93;3.20;;;6.30;99.90;;;;;;5010323;28;20383;-88
2022/12/05 22:26:17;;;;;;;11.95;3.45;;;7.30;99.90;;;;;;5001279;28;20148;-88
2022/12/05 22:28:43;;;;;;;8.30;3.13;;;7.10;99.90;;;;;;5032771;28;20110;-88
2022/12/05 22:31:12;;;;;;;7.72;3.13;;;6.80;99.90;;;;;;5031425;28;20052;-88
2022/12/05 22:33:38;;;;;;;8.40;3.35;;;6.20;99.90;;;;;;5056227;28;20091;-88
2022/12/05 22:36:06;;;;;;;10.18;3.33;;;6.30;99.90;;;;;;5020750;28;20092;-87
2022/12/05 22:38:37;;;;;;;7.43;2.97;;;6.30;99.90;;;;;;5019852;28;20552;-87
2022/12/05 22:41:08;;;;;;;6.20;2.80;;;6.20;99.90;;;;;;5036726;28;20566;-88
2022/12/05 22:43:36;;;;;;;6.50;3.20;;;7.00;99.90;;;;;;5020136;28;20053;-89
2022/12/05 22:46:16;;;;;;;8.10;3.58;;;6.30;99.90;;;;;;5019954;28;20088;-89
2022/12/05 22:48:43;;;;;;;7.80;2.88;;;5.80;99.90;;;;;;5036214;28;20504;-88
2022/12/05 22:51:10;;;;;;;13.38;4.03;;;6.30;99.90;;;;;;5036406;28;20060;-88
2022/12/05 22:53:36;;;;;;;8.65;3.00;;;7.30;99.90;;;;;;5036572;28;20052;-88
2022/12/05 22:56:08;;;;;;;6.13;3.28;;;6.30;99.90;;;;;;5036093;28;20045;-88
2022/12/05 22:58:34;;;;;;;11.00;3.60;;;6.20;99.90;;;;;;5020396;28;20053;-89
2022/12/05 23:01:12;;;;;;;10.48;3.10;;;6.20;99.90;;;;;;5035035;28;20177;-88
2022/12/05 23:03:39;;;;;;;11.68;4.88;;;;;;;;;;5056659;28;20437;-88
2022/12/05 23:06:06;;;;;;;11.15;3.53;;;6.20;99.90;;;;;;5027755;28;20556;-88
2022/12/05 23:08:32;;;;;;;10.60;3.50;;;6.20;99.90;;;;;;5034300;28;20413;-88
2022/12/05 23:10:59;;;;;;;8.35;3.50;;;7.00;99.90;;;;;;5014795;28;20049;-88
2022/12/05 23:13:25;;;;;;;10.40;3.50;;;6.30;99.90;;;;;;5017016;28;20064;-89
2022/12/05 23:15:52;;;;;;;12.82;3.63;;;6.50;99.90;;;;;;5016594;28;20101;-88
2022/12/05 23:18:17;;;;;;;9.30;3.40;;;6.30;99.90;;;;;;5017130;28;20084;-88
2022/12/05 23:20:43;;;;;;;8.98;3.60;;;5.10;99.90;;;;;;5017064;28;20053;-88
2022/12/05 23:23:09;;;;;;;9.10;3.60;;;;;;;;;;5014856;28;20046;-88
2022/12/05 23:25:35;;;;;;;10.75;3.45;;;6.20;99.90;;;;;;5014805;28;20054;-88
2022/12/05 23:28:01;;;;;;;10.43;3.35;;;5.30;99.90;;;;;;5026071;28;20124;-88
2022/12/05 23:30:26;;;;;;;11.43;3.75;;;6.20;99.90;;;;;;5034881;28;20472;-88
2022/12/05 23:32:52;;;;;;;10.77;4.22;;;6.20;99.90;;;;;;5039326;28;20040;-89
2022/12/05 23:35:18;;;;;;;10.02;3.75;;;6.30;99.90;;;;;;5039522;28;20139;-89
2022/12/05 23:37:47;;;;;;;9.90;3.70;;;6.20;99.90;;;;;;5039541;28;20145;-88
2022/12/05 23:40:14;;;;;;;10.05;3.35;;;6.20;99.90;;;;;;5038758;28;20059;-88
2022/12/05 23:42:40;;;;;;;10.77;3.90;;;6.30;99.90;;;;;;5039362;28;20071;-88
2022/12/05 23:45:06;;;;;;;10.63;3.85;;;6.20;99.90;;;;;;5055922;28;20048;-88
2022/12/05 23:47:32;;;;;;;10.45;3.80;;;6.20;99.90;;;;;;5039495;28;20054;-88
2022/12/05 23:49:58;;;;;;;9.15;3.65;;;6.30;99.90;;;;;;5037140;28;20131;-88
2022/12/05 23:52:24;;;;;;;14.18;4.22;;;6.20;99.90;;;;;;5039009;28;20048;-88
2022/12/05 23:54:49;;;;;;;9.00;3.72;;;6.20;99.90;;;;;;5034511;28;20057;-89
2022/12/05 23:57:15;;;;;;;12.15;4.40;;;6.20;99.90;;;;;;5019550;28;20044;-89
2022/12/05 23:59:41;;;;;;;11.13;4.32;;;6.30;99.90;;;;;;5022862;28;20132;-89
